Cloverdale, OH (45827)

11:38 AM EDT on October 24, 2014 (GMT -0400)
Kalida Local Schools | Change Station
CLOSE
Current Station
Personal Weather Station
Location: Kalida, OH
Elevation: 725 ft
Nearby Weather Stations

Elev 725 ft 40.98 °N, 84.20 °W | Updated 7 minutes ago

Partly Cloudy
Partly Cloudy
55.6 °F
Feels Like 55.6 °F
N
5.0
Wind Variable Wind from WSW

Today
High -- | Low -- °F
--% Chance of Precip.
Yesterday
High -- | Low -- °F
Precip. -- in
7:58 AM 6:43 PM
New Moon, 1% visible
Pressure 30.12 in
Visibility 6.0 miles
Clouds Overcast 4500 ft
Dew Point 46 °F
Humidity 69%
Rainfall 0.00 in
Snow Depth Not available.
UV 1 out of 12
Pollen 1.10 out of 12
Air Quality Not available.
Flu Activity Sporadic
METAR KDFI 241453Z AUTO 23003KT 6SM HZ OVC045 11/06 A3011 RMK AO2 SLP199 T01060056 53001

More Conditions Fewer Conditions

Pressure 30.12 in
Visibility 6.0 miles
Clouds Overcast 4500 ft
Dew Point 46 °F
Humidity 69%
Rainfall 0.00 in
Snow Depth Not available.
UV 1 out of 12
Pollen 1.10 out of 12
Air Quality Not available.
Flu Activity Sporadic
METAR KDFI 241453Z AUTO 23003KT 6SM HZ OVC045 11/06 A3011 RMK AO2 SLP199 T01060056 53001

More Conditions Fewer Conditions

10-Day Weather Forecast

Almanac

Astronomy

Oct. 24, 2014 Rise Set
Actual Time 7:58 AM EDT 6:43 PM EDT
Civil Twilight 7:30 AM EDT 7:11 PM EDT
Nautical Twilight 6:58 AM EDT 7:43 PM EDT
Astronomical Twilight 6:26 AM EDT 8:15 PM EDT
Moon 8:37 AM EDT 7:22 PM EDT
Length of Visible Light 11h 40m
Length of Day
10h 44m
Tomorrow will be 2m 32s shorter.
New Moon, 1% of the Moon is Illuminated
Today
New Moon
Oct 30
First Quarter
Nov 6
Full
Nov 14
Last Quarter
Nov 22
New

Today's Extremes

State Highs State Lows

Community

WunderPhotos

Upload Photos

1,764,589 photos uploaded!

WunderBlogs® & News

Nearby

Snow Depth

Station Depth Elevation
No new snow has been reported.

Earthquake Activity

City Distance Mag. Time & Date
No recent earthquake activity has been reported nearby.
Minimum magnitude displayed is 2.5.

Coastal Water Temperatures

Place Temperature
No Stations Reporting

Nearby Weather Stations